Time;durP1;ratioP1;P1;durP2;ratioP2;P2;SDS_P1;SDS_P2;PMS_P1;PMS_P2;Temp;Humidity;BMP_temperature;BMP_pressure;BME280_temperature;BME280_humidity;BME280_pressure;Samples;Min_cycle;Max_cycle;Signal;HPM_P1;HPM_P2
2024/01/14 00:01:33;;;;;;;41.80;19.80;;;;;;;-7.62;82.72;99017.75;106182;1251;60520;-72
2024/01/14 00:04:00;;;;;;;38.10;20.60;;;;;;;-7.62;82.67;99016.02;106359;1251;72767;-73
2024/01/14 00:06:28;;;;;;;40.90;22.60;;;;;;;-7.53;82.49;99011.60;106095;1258;69438;-72
2024/01/14 00:08:55;;;;;;;39.30;20.90;;;;;;;-7.41;82.09;99009.48;106227;1258;71193;-73
2024/01/14 00:11:23;;;;;;;34.90;19.70;;;;;;;-7.39;82.39;99013.73;107352;1256;60373;-73
2024/01/14 00:13:50;;;;;;;39.10;21.30;;;;;;;-7.43;82.45;99015.12;106648;1251;60632;-72
2024/01/14 00:16:17;;;;;;;37.20;20.20;;;;;;;-7.47;82.57;99015.30;105594;1257;73860;-73
2024/01/14 00:18:45;;;;;;;32.70;18.40;;;;;;;-7.52;82.62;99011.55;105621;1257;70197;-73
2024/01/14 00:21:13;;;;;;;40.80;18.50;;;;;;;-7.55;82.66;99007.95;105446;1251;71464;-73
2024/01/14 00:23:40;;;;;;;36.00;18.90;;;;;;;-7.47;82.40;98999.65;105700;1259;60598;-72
2024/01/14 00:26:08;;;;;;;36.40;18.50;;;;;;;-7.38;82.09;98997.31;105601;1258;60797;-73
2024/01/14 00:28:35;;;;;;;35.50;19.30;;;;;;;-7.39;82.77;98990.80;105480;1253;72610;-74
2024/01/14 00:31:03;;;;;;;39.10;18.30;;;;;;;-7.40;83.02;98994.48;105643;1256;70213;-73
2024/01/14 00:33:30;;;;;;;39.10;20.40;;;;;;;-7.42;82.84;98988.22;105505;1257;71674;-73
2024/01/14 00:36:02;;;;;;;38.50;20.40;;;;;;;-7.47;82.99;98981.73;105448;1257;166067;-73
2024/01/14 00:40:52;;;;;;;39.40;20.00;;;;;;;-7.42;82.89;98970.30;102359;1292;600403;-73
2024/01/14 00:43:19;;;;;;;34.80;18.50;;;;;;;-7.30;82.60;98968.02;104712;1266;60159;-73
2024/01/14 00:45:46;;;;;;;35.80;18.20;;;;;;;-7.27;82.71;98968.08;104636;1266;59395;-73
2024/01/14 00:48:14;;;;;;;38.10;21.60;;;;;;;-7.29;82.95;98966.77;104671;1267;72262;-74
2024/01/14 00:50:42;;;;;;;34.20;19.60;;;;;;;-7.29;83.12;98957.52;104385;1264;1002971;-72
2024/01/14 00:53:09;;;;;;;35.80;17.60;;;;;;;-7.32;83.16;98961.92;105015;1260;72641;-72
2024/01/14 00:55:37;;;;;;;37.70;18.50;;;;;;;-7.34;83.17;98964.45;105092;1257;169030;-73
2024/01/14 00:58:04;;;;;;;38.10;20.10;;;;;;;-7.37;83.31;98957.35;105233;1257;59275;-74
2024/01/14 01:00:31;;;;;;;36.70;17.70;;;;;;;-7.28;83.10;98948.50;105172;1262;71943;-73
2024/01/14 01:02:59;;;;;;;37.60;19.70;;;;;;;-7.16;82.80;98938.42;105603;1261;69331;-72
2024/01/14 01:05:27;;;;;;;33.90;20.10;;;;;;;-7.14;82.94;98936.95;106046;1256;71252;-72
2024/01/14 01:07:55;;;;;;;36.70;20.40;;;;;;;-7.15;83.13;98928.57;106429;1256;59301;-71
2024/01/14 01:10:22;;;;;;;39.40;19.80;;;;;;;-7.16;83.17;98928.63;107278;1257;59622;-71
2024/01/14 01:12:50;;;;;;;38.10;18.70;;;;;;;-7.18;83.28;98934.75;106732;1260;71790;-72
2024/01/14 01:15:17;;;;;;;34.60;19.30;;;;;;;-7.13;83.08;98924.87;105418;1257;70505;-73
2024/01/14 01:17:45;;;;;;;37.50;18.60;;;;;;;-7.00;82.82;98924.90;105292;1258;72052;-70
2024/01/14 01:20:12;;;;;;;33.60;18.40;;;;;;;-6.98;83.25;98913.77;105507;1259;59573;-72
2024/01/14 01:22:40;;;;;;;35.80;19.50;;;;;;;-7.00;83.28;98908.39;105379;1261;60466;-72
2024/01/14 01:25:10;;;;;;;34.40;18.90;;;;;;;-7.02;83.44;98899.88;105135;1260;70931;-72
2024/01/14 01:27:37;;;;;;;38.00;20.00;;;;;;;-7.02;83.70;98892.45;105148;1262;68081;-72
2024/01/14 01:30:06;;;;;;;36.30;19.80;;;;;;;-7.01;83.57;98889.15;105356;1257;72047;-72
2024/01/14 01:32:33;;;;;;;33.70;19.70;;;;;;;-6.89;83.29;98890.44;105386;1256;60428;-72
2024/01/14 01:35:01;;;;;;;42.90;21.40;;;;;;;-6.76;83.09;98885.27;105320;1257;59738;-71
2024/01/14 01:37:29;;;;;;;41.40;21.40;;;;;;;-6.73;83.31;98884.25;105431;1257;71914;-71
2024/01/14 01:39:56;;;;;;;43.60;23.60;;;;;;;-6.76;83.27;98879.75;105208;1261;68847;-72
2024/01/14 01:42:24;;;;;;;50.10;21.90;;;;;;;-6.77;83.26;98879.85;105480;1257;71417;-73
2024/01/14 01:44:51;;;;;;;38.50;20.10;;;;;;;-6.80;83.53;98875.17;105259;1258;59664;-73
2024/01/14 01:47:19;;;;;;;40.90;21.80;;;;;;;-6.81;83.43;98864.52;105214;1262;59563;-73
2024/01/14 01:49:47;;;;;;;33.70;17.90;;;;;;;-6.70;83.11;98869.15;105230;1262;73085;-74
2024/01/14 01:52:14;;;;;;;34.90;18.10;;;;;;;-6.64;83.01;98866.94;105257;1256;70002;-72
2024/01/14 01:54:42;;;;;;;30.20;17.90;;;;;;;-6.68;83.11;98870.23;105320;1257;71279;-73
2024/01/14 01:57:09;;;;;;;31.90;18.40;;;;;;;-6.74;83.38;98863.83;105288;1257;59698;-72
2024/01/14 01:59:37;;;;;;;36.80;19.60;;;;;;;-6.80;83.56;98859.66;105164;1256;59632;-72
2024/01/14 02:02:05;;;;;;;34.00;18.50;;;;;;;-6.83;83.67;98852.91;105431;1260;73121;-73
2024/01/14 02:04:32;;;;;;;31.10;17.00;;;;;;;-6.73;83.57;98848.08;105273;1257;69962;-72
2024/01/14 02:07:00;;;;;;;31.30;18.50;;;;;;;-6.63;83.65;98841.70;105705;1262;71441;-70
2024/01/14 02:09:28;;;;;;;24.00;14.70;;;;;;;-6.65;83.69;98838.21;106132;1262;59691;-71
2024/01/14 02:11:55;;;;;;;28.40;17.70;;;;;;;-6.70;83.92;98839.33;105981;1257;59791;-72
2024/01/14 02:14:23;;;;;;;28.60;17.20;;;;;;;-6.75;84.37;98836.48;105319;1260;73018;-72
2024/01/14 02:16:52;;;;;;;31.90;17.30;;;;;;;-6.75;84.30;98832.35;105341;1262;70085;-73
2024/01/14 02:19:19;;;;;;;33.20;16.60;;;;;;;-6.64;84.25;98833.63;105272;1261;71312;-72
2024/01/14 02:22:05;;;;;;;29.20;16.20;;;;;;;-6.59;84.30;98822.52;105451;1256;59665;-72
2024/01/14 02:24:33;;;;;;;27.20;15.90;;;;;;;-6.62;84.86;98820.16;105406;1257;60224;-70
2024/01/14 02:27:00;;;;;;;31.80;16.80;;;;;;;-6.67;84.88;98818.02;105324;1256;71292;-73
2024/01/14 02:29:28;;;;;;;26.40;15.60;;;;;;;-6.69;85.20;98810.17;105577;1260;68043;-73
2024/01/14 02:31:56;;;;;;;29.20;15.30;;;;;;;-6.59;85.27;98808.09;105306;1256;72517;-74
2024/01/14 02:34:23;;;;;;;26.10;16.20;;;;;;;-6.58;85.13;98804.91;105755;1256;59730;-72
2024/01/14 02:36:51;;;;;;;31.70;17.20;;;;;;;-6.62;85.58;98801.36;105470;1255;59522;-72
2024/01/14 02:39:19;;;;;;;31.40;18.70;;;;;;;-6.65;85.81;98795.34;105140;1258;72974;-72
2024/01/14 02:41:46;;;;;;;31.40;16.40;;;;;;;-6.66;86.11;98795.55;105318;1260;70123;-70
2024/01/14 02:44:15;;;;;;;25.60;16.30;;;;;;;-6.58;85.88;98785.79;105177;1262;70448;-71
2024/01/14 02:46:42;;;;;;;27.50;16.50;;;;;;;-6.45;85.68;98781.13;105343;1259;59695;-70
2024/01/14 02:49:10;;;;;;;26.20;16.70;;;;;;;-6.42;85.76;98768.74;105303;1268;60006;-73
2024/01/14 02:51:37;;;;;;;33.10;17.70;;;;;;;-6.44;85.99;98768.99;105392;1261;73603;-73
2024/01/14 02:54:05;;;;;;;29.90;18.10;;;;;;;-6.46;86.18;98761.40;105641;1257;70119;-74
2024/01/14 02:56:33;;;;;;;31.80;17.30;;;;;;;-6.49;86.30;98762.92;105479;1256;72698;-72
2024/01/14 02:59:00;;;;;;;33.20;18.10;;;;;;;-6.45;86.20;98762.04;105518;1262;60005;-74
2024/01/14 03:01:27;;;;;;;33.40;18.10;;;;;;;-6.31;86.05;98753.83;105703;1260;60549;-73
2024/01/14 03:03:55;;;;;;;34.30;18.00;;;;;;;-6.30;85.91;98751.16;105582;1257;70746;-72
2024/01/14 03:06:23;;;;;;;32.90;20.30;;;;;;;-6.33;86.20;98743.77;106734;1257;68684;-73
2024/01/14 03:08:51;;;;;;;34.00;19.30;;;;;;;-6.35;86.44;98739.92;107711;1260;71398;-72
2024/01/14 03:11:19;;;;;;;37.60;19.40;;;;;;;-6.36;86.58;98740.17;106449;1257;60020;-74
2024/01/14 03:13:46;;;;;;;34.70;18.50;;;;;;;-6.29;86.40;98733.25;105499;1260;60037;-71
2024/01/14 03:16:14;;;;;;;30.40;18.70;;;;;;;-6.15;86.04;98728.44;105375;1257;71791;-71
2024/01/14 03:18:41;;;;;;;33.50;19.10;;;;;;;-6.11;86.14;98719.62;105385;1261;70150;-70
2024/01/14 03:21:17;;;;;;;34.00;20.30;;;;;;;-6.11;86.41;98715.69;105310;1269;70405;-73
2024/01/14 03:23:45;;;;;;;32.90;20.70;;;;;;;-6.14;86.60;98714.94;105646;1262;59814;-73
2024/01/14 03:26:13;;;;;;;36.00;19.60;;;;;;;-6.16;86.73;98717.08;105477;1258;60202;-74
2024/01/14 03:28:40;;;;;;;31.30;19.10;;;;;;;-6.10;86.68;98717.46;105504;1262;73129;-73
2024/01/14 03:31:08;;;;;;;24.90;16.40;;;;;;;-5.96;86.30;98714.91;105563;1262;68634;-73
2024/01/14 03:33:35;;;;;;;34.60;18.80;;;;;;;-5.94;86.66;98713.05;105612;1261;70761;-73
2024/01/14 03:36:03;;;;;;;33.80;20.30;;;;;;;-5.98;86.87;98702.63;105691;1257;60216;-73
2024/01/14 03:38:31;;;;;;;34.10;19.80;;;;;;;-6.00;87.16;98695.85;105547;1259;59660;-73
2024/01/14 03:40:58;;;;;;;37.50;20.20;;;;;;;-6.00;87.24;98690.54;105466;1261;73121;-73
2024/01/14 03:43:25;;;;;;;37.20;21.80;;;;;;;-5.91;87.07;98687.08;105604;1260;69951;-73
2024/01/14 03:45:53;;;;;;;38.50;21.20;;;;;;;-5.76;86.74;98689.39;105177;1262;71490;-74
2024/01/14 03:48:20;;;;;;;43.50;21.90;;;;;;;-5.72;86.80;98681.27;105563;1261;61052;-74
2024/01/14 03:50:48;;;;;;;42.80;22.30;;;;;;;-5.74;86.90;98683.96;105229;1263;59555;-73
2024/01/14 03:53:15;;;;;;;43.80;23.40;;;;;;;-5.77;87.15;98682.73;105439;1262;73286;-73
2024/01/14 03:55:43;;;;;;;44.00;23.00;;;;;;;-5.80;87.06;98684.27;105268;1257;70158;-71
2024/01/14 03:58:10;;;;;;;42.00;23.20;;;;;;;-5.77;87.00;98683.64;105311;1262;71298;-73
2024/01/14 04:00:38;;;;;;;40.20;21.90;;;;;;;-5.65;86.71;98682.23;105903;1256;60907;-71
2024/01/14 04:03:05;;;;;;;36.70;21.60;;;;;;;-5.61;86.72;98682.13;106141;1260;59698;-71
2024/01/14 04:05:33;;;;;;;34.00;19.50;;;;;;;-5.63;86.87;98679.20;106843;1260;73033;-71
2024/01/14 04:08:00;;;;;;;37.80;21.60;;;;;;;-5.67;86.76;98674.42;107257;1256;68717;-72
2024/01/14 04:10:28;;;;;;;36.60;20.80;;;;;;;-5.69;86.95;98673.00;106438;1260;72741;-71
2024/01/14 04:12:55;;;;;;;34.90;20.40;;;;;;;-5.67;86.91;98672.36;105610;1257;63944;-73
2024/01/14 04:15:24;;;;;;;30.90;18.40;;;;;;;-5.54;86.64;98666.17;105240;1258;59946;-71
2024/01/14 04:17:51;;;;;;;37.50;19.70;;;;;;;-5.50;86.58;98662.53;105668;1261;71791;-72
2024/01/14 04:20:19;;;;;;;33.50;19.00;;;;;;;-5.54;86.92;98656.88;105326;1261;68759;-73
2024/01/14 04:22:46;;;;;;;33.80;20.00;;;;;;;-5.57;87.07;98657.05;105308;1261;71225;-73
2024/01/14 04:25:14;;;;;;;34.80;20.60;;;;;;;-5.59;87.33;98657.38;105517;1262;59752;-73
2024/01/14 04:27:41;;;;;;;29.50;18.60;;;;;;;-5.51;87.33;98649.30;105345;1261;59730;-72
2024/01/14 04:30:10;;;;;;;30.00;18.40;;;;;;;-5.41;87.10;98644.55;105269;1257;71734;-73
2024/01/14 04:32:38;;;;;;;31.50;19.10;;;;;;;-5.43;87.36;98648.98;105811;1262;70639;-72
2024/01/14 04:35:06;;;;;;;32.20;19.20;;;;;;;-5.48;87.57;98650.83;105184;1258;72405;-72
2024/01/14 04:37:33;;;;;;;30.40;17.80;;;;;;;-5.54;87.90;98644.11;105339;1261;59645;-73
2024/01/14 04:40:01;;;;;;;32.70;19.00;;;;;;;-5.54;87.94;98647.39;105504;1261;60051;-72
2024/01/14 04:42:28;;;;;;;31.20;17.80;;;;;;;-5.42;87.98;98642.90;105295;1258;73335;-72
2024/01/14 04:44:55;;;;;;;35.40;19.50;;;;;;;-5.38;87.98;98640.42;105292;1262;69038;-72
2024/01/14 04:47:23;;;;;;;30.40;17.70;;;;;;;-5.42;88.20;98644.59;105218;1262;72743;-71
2024/01/14 04:49:50;;;;;;;30.40;18.00;;;;;;;-5.45;88.68;98631.47;105237;1258;60460;-71
2024/01/14 04:52:17;;;;;;;25.60;16.00;;;;;;;-5.41;88.97;98628.33;105375;1263;60416;-71
2024/01/14 04:54:45;;;;;;;27.50;16.60;;;;;;;-5.28;88.85;98624.07;105328;1260;73796;-72
2024/01/14 04:57:12;;;;;;;26.60;16.30;;;;;;;-5.22;89.04;98619.87;105303;1260;69962;-71
2024/01/14 04:59:40;;;;;;;27.90;18.80;;;;;;;-5.22;89.28;98615.96;105279;1261;71409;-71
2024/01/14 05:02:07;;;;;;;28.70;17.60;;;;;;;-5.25;89.32;98610.07;105381;1263;60525;-72
2024/01/14 05:04:34;;;;;;;27.20;16.30;;;;;;;-5.23;89.61;98610.64;105992;1261;60402;-69
2024/01/14 05:07:02;;;;;;;27.60;17.30;;;;;;;-5.09;89.39;98606.80;105992;1262;73834;-72
2024/01/14 05:09:29;;;;;;;23.40;15.40;;;;;;;-5.03;89.25;98605.06;105502;1261;70330;-74
2024/01/14 05:11:57;;;;;;;24.00;15.80;;;;;;;-5.03;89.60;98599.55;105318;1261;72576;-72
2024/01/14 05:14:25;;;;;;;27.70;16.80;;;;;;;-5.05;89.88;98599.11;105493;1259;60412;-72
2024/01/14 05:16:52;;;;;;;29.50;17.20;;;;;;;-5.03;89.86;98594.72;105148;1263;60448;-72
2024/01/14 05:19:19;;;;;;;25.40;16.00;;;;;;;-4.93;89.50;98596.29;105335;1261;73859;-72
2024/01/14 05:21:48;;;;;;;27.70;16.50;;;;;;;-4.86;89.54;98595.17;105291;1257;69957;-71
2024/01/14 05:24:15;;;;;;;30.10;17.90;;;;;;;-4.88;89.94;98587.02;105456;1258;71391;-72
2024/01/14 05:26:43;;;;;;;27.10;16.60;;;;;;;-4.91;90.00;98582.71;105208;1257;60508;-71
2024/01/14 05:29:10;;;;;;;24.80;16.60;;;;;;;-4.90;90.22;98585.27;105210;1260;60467;-72
2024/01/14 05:31:38;;;;;;;27.10;16.30;;;;;;;-4.78;89.89;98578.92;105366;1260;72540;-72
2024/01/14 05:34:06;;;;;;;27.70;16.60;;;;;;;-4.69;89.88;98581.29;105357;1262;69097;-71
2024/01/14 05:36:33;;;;;;;28.10;16.80;;;;;;;-4.71;90.33;98577.59;105154;1261;72455;-71
2024/01/14 05:39:01;;;;;;;31.10;18.10;;;;;;;-4.72;90.41;98580.45;105198;1263;60531;-69
2024/01/14 05:41:28;;;;;;;26.20;16.00;;;;;;;-4.72;90.67;98581.34;105343;1260;60374;-73
2024/01/14 05:43:56;;;;;;;28.00;17.40;;;;;;;-4.63;90.42;98590.91;105307;1263;73818;-72
2024/01/14 05:46:23;;;;;;;27.00;16.60;;;;;;;-4.50;90.12;98585.73;105335;1258;70251;-71
2024/01/14 05:48:51;;;;;;;24.70;15.70;;;;;;;-4.48;90.28;98585.64;105312;1261;71470;-73
2024/01/14 05:51:18;;;;;;;24.50;15.70;;;;;;;-4.50;90.64;98586.11;105175;1258;60485;-72
2024/01/14 05:53:46;;;;;;;30.50;17.50;;;;;;;-4.50;90.78;98576.73;105263;1257;60547;-72
2024/01/14 05:56:24;;;;;;;28.40;16.00;;;;;;;-4.38;90.57;98585.80;105303;1258;73022;-72
2024/01/14 05:58:51;;;;;;;24.30;16.00;;;;;;;-4.27;90.35;98583.85;105452;1258;70058;-70
2024/01/14 06:01:19;;;;;;;24.60;16.90;;;;;;;-4.28;90.24;98582.02;105339;1257;72483;-77
2024/01/14 06:03:46;;;;;;;25.90;16.10;;;;;;;-4.30;90.58;98581.46;107735;1260;60263;-76
2024/01/14 06:06:13;;;;;;;27.80;17.90;;;;;;;-4.29;90.74;98586.29;108608;1256;59441;-75
2024/01/14 06:08:42;;;;;;;26.60;17.00;;;;;;;-4.20;90.56;98587.54;106944;1258;72598;-75
2024/01/14 06:11:09;;;;;;;26.80;16.20;;;;;;;-4.08;90.32;98582.24;105683;1261;70054;-77
2024/01/14 06:13:37;;;;;;;27.50;17.50;;;;;;;-4.06;90.45;98582.46;105542;1261;71783;-78
2024/01/14 06:16:04;;;;;;;30.10;17.60;;;;;;;-4.08;90.73;98585.56;105696;1257;60451;-80
2024/01/14 06:18:32;;;;;;;29.20;17.00;;;;;;;-4.09;90.99;98584.95;105669;1260;60545;-77
2024/01/14 06:21:00;;;;;;;25.80;16.80;;;;;;;-4.01;90.98;98581.05;105657;1257;72653;-77
2024/01/14 06:23:28;;;;;;;25.70;16.10;;;;;;;-3.86;90.80;98583.02;106005;1266;68788;-76
2024/01/14 06:25:55;;;;;;;25.00;16.90;;;;;;;-3.84;90.69;98579.55;106376;1257;71392;-76
2024/01/14 06:28:23;;;;;;;28.00;17.10;;;;;;;-3.85;90.98;98575.13;105909;1256;60550;-76
2024/01/14 06:30:50;;;;;;;25.40;15.50;;;;;;;-3.84;91.16;98575.21;106165;1255;60934;-77
2024/01/14 06:33:18;;;;;;;23.40;15.40;;;;;;;-3.73;91.00;98575.71;105949;1262;72903;-74
2024/01/14 06:35:45;;;;;;;24.40;16.10;;;;;;;-3.64;90.76;98567.79;105680;1269;67855;-74
2024/01/14 06:38:13;;;;;;;29.40;18.80;;;;;;;-3.64;90.92;98569.92;106111;1263;72691;-76
2024/01/14 06:40:40;;;;;;;26.60;16.20;;;;;;;-3.67;91.45;98566.98;105937;1261;60435;-75
2024/01/14 06:43:15;;;;;;;25.20;16.00;;;;;;;-3.62;91.51;98560.95;105809;1258;60351;-76
2024/01/14 06:45:43;;;;;;;21.80;14.90;;;;;;;-3.47;91.37;98561.76;105596;1261;73787;-76
2024/01/14 06:48:10;;;;;;;24.00;15.90;;;;;;;-3.40;91.65;98562.30;105523;1261;70241;-77
2024/01/14 06:50:38;;;;;;;26.60;17.20;;;;;;;-3.41;91.62;98562.02;105774;1258;73589;-78
2024/01/14 06:53:05;;;;;;;28.30;17.20;;;;;;;-3.38;91.68;98556.30;105958;1260;60502;-77
2024/01/14 06:55:33;;;;;;;24.00;15.80;;;;;;;-3.26;91.29;98548.84;105903;1256;60457;-78
2024/01/14 06:58:00;;;;;;;26.00;18.10;;;;;;;-3.19;91.34;98552.17;105586;1257;73388;-78
2024/01/14 07:00:27;;;;;;;26.00;16.50;;;;;;;-3.21;91.48;98548.28;106024;1261;68999;-78
2024/01/14 07:02:55;;;;;;;22.50;15.10;;;;;;;-3.20;91.38;98548.74;108264;1255;71460;-77
2024/01/14 07:05:22;;;;;;;21.70;15.60;;;;;;;-3.07;91.16;98548.54;108742;1257;59650;-80
2024/01/14 07:07:50;;;;;;;24.10;15.50;;;;;;;-2.96;91.15;98546.02;107568;1257;60377;-80
2024/01/14 07:10:18;;;;;;;24.00;15.30;;;;;;;-2.92;91.04;98545.37;106118;1261;72968;-79
2024/01/14 07:12:46;;;;;;;26.60;15.60;;;;;;;-2.92;90.90;98547.63;106325;1254;68618;-79
2024/01/14 07:15:13;;;;;;;21.50;14.00;;;;;;;-2.86;90.63;98538.54;105990;1257;71414;-80
2024/01/14 07:17:41;;;;;;;20.30;14.10;;;;;;;-2.74;90.21;98535.89;106294;1254;60446;-80
2024/01/14 07:20:23;;;;;;;22.60;15.10;;;;;;;-2.71;90.11;98537.10;106815;1254;60717;-80
2024/01/14 07:22:51;;;;;;;22.50;16.00;;;;;;;-2.74;90.22;98541.50;106351;1260;72594;-82
2024/01/14 07:25:18;;;;;;;24.80;16.20;;;;;;;-2.75;90.23;98535.33;106194;1254;69134;-81
2024/01/14 07:27:46;;;;;;;21.00;15.30;;;;;;;-2.65;90.02;98539.04;106137;1254;71477;-81
2024/01/14 07:30:14;;;;;;;27.20;16.10;;;;;;;-2.55;89.75;98536.24;106006;1259;60574;-80
2024/01/14 07:32:42;;;;;;;23.20;16.60;;;;;;;-2.54;89.76;98535.45;106202;1259;60511;-81
2024/01/14 07:35:09;;;;;;;25.00;16.20;;;;;;;-2.55;89.76;98532.05;106722;1255;73637;-81
2024/01/14 07:37:37;;;;;;;21.10;14.70;;;;;;;-2.54;89.67;98523.20;106267;1254;69645;-80
2024/01/14 07:40:05;;;;;;;26.10;16.90;;;;;;;-2.44;89.32;98524.69;106005;1254;72711;-80
2024/01/14 07:42:33;;;;;;;21.50;15.30;;;;;;;-2.37;88.97;98523.61;106325;1255;60364;-80
2024/01/14 07:45:00;;;;;;;25.60;18.00;;;;;;;-2.40;89.09;98523.85;106168;1260;60395;-81
2024/01/14 07:47:28;;;;;;;26.20;16.80;;;;;;;-2.45;89.12;98523.83;106408;1259;73761;-80
2024/01/14 07:49:55;;;;;;;27.30;17.80;;;;;;;-2.40;89.01;98525.71;106415;1260;70139;-80
2024/01/14 07:52:22;;;;;;;23.20;15.10;;;;;;;-2.35;88.95;98523.45;106262;1259;72480;-82
2024/01/14 07:54:50;;;;;;;26.00;16.60;;;;;;;-2.39;89.11;98528.80;107058;1253;59405;-82
2024/01/14 07:57:17;;;;;;;27.50;16.70;;;;;;;-2.39;89.32;98523.94;107337;1253;60883;-81
2024/01/14 07:59:45;;;;;;;27.40;16.80;;;;;;;-2.31;89.13;98533.55;107123;1254;74172;-79
2024/01/14 08:02:14;;;;;;;23.40;15.90;;;;;;;-2.26;88.93;98531.42;107121;1255;68994;-80
2024/01/14 08:04:41;;;;;;;24.20;15.50;;;;;;;-2.30;88.89;98521.68;108037;1253;71507;-79
2024/01/14 08:07:09;;;;;;;23.00;15.30;;;;;;;-2.26;89.13;98525.23;109153;1254;60418;-80
2024/01/14 08:09:37;;;;;;;22.10;14.40;;;;;;;-2.14;88.93;98526.40;109015;1259;58874;-79
2024/01/14 08:12:05;;;;;;;22.90;15.00;;;;;;;-2.08;88.38;98526.64;108604;1253;73779;-79
2024/01/14 08:14:32;;;;;;;23.90;15.70;;;;;;;-2.09;88.39;98531.73;107197;1255;68916;-80
2024/01/14 08:17:00;;;;;;;19.70;13.90;;;;;;;-2.02;88.13;98520.44;107873;1256;71725;-79
2024/01/14 08:19:27;;;;;;;23.10;15.00;;;;;;;-1.92;87.91;98525.04;107083;1253;60500;-80
2024/01/14 08:21:55;;;;;;;20.70;13.40;;;;;;;-1.93;87.87;98525.13;107432;1254;59330;-80
2024/01/14 08:24:22;;;;;;;26.30;14.10;;;;;;;-1.91;87.90;98519.73;107473;1254;72666;-81
2024/01/14 08:26:50;;;;;;;21.80;15.10;;;;;;;-1.82;87.47;98520.59;107094;1254;68838;-81
2024/01/14 08:29:18;;;;;;;20.90;13.90;;;;;;;-1.80;87.30;98524.26;106087;1255;70466;-80
2024/01/14 08:31:52;;;;;;;21.40;13.40;;;;;;;-1.83;87.30;98523.31;105833;1260;60533;-81
2024/01/14 08:34:20;;;;;;;21.30;13.30;;;;;;;-1.81;87.30;98520.70;106338;1253;60513;-80
2024/01/14 08:36:48;;;;;;;23.50;14.10;;;;;;;-1.72;87.44;98516.93;107126;1253;71928;-80
2024/01/14 08:39:15;;;;;;;21.50;14.30;;;;;;;-1.72;87.81;98509.64;107513;1254;68961;-79
2024/01/14 08:41:44;;;;;;;22.80;12.90;;;;;;;-1.78;87.57;98518.04;106346;1255;72487;-80
2024/01/14 08:44:11;;;;;;;20.00;13.70;;;;;;;-1.74;87.16;98513.40;106677;1254;60869;-81
2024/01/14 08:46:40;;;;;;;18.40;11.60;;;;;;;-1.67;86.75;98504.52;107408;1260;60371;-82
2024/01/14 08:49:07;;;;;;;17.30;12.10;;;;;;;-1.69;86.59;98497.96;105832;1259;72662;-82
2024/01/14 08:51:35;;;;;;;18.90;11.70;;;;;;;-1.74;86.50;98506.48;105956;1259;71051;-80
2024/01/14 08:54:03;;;;;;;18.50;11.00;;;;;;;-1.70;86.25;98500.30;105945;1254;72769;-80
2024/01/14 08:56:30;;;;;;;21.90;11.60;;;;;;;-1.64;86.06;98491.42;106061;1254;60976;-78
2024/01/14 08:58:58;;;;;;;16.00;10.80;;;;;;;-1.66;85.86;98494.06;108010;1254;59247;-81
2024/01/14 09:01:28;;;;;;;17.90;10.90;;;;;;;-1.73;85.90;98490.83;109359;1254;71742;-81
2024/01/14 09:03:56;;;;;;;16.50;10.40;;;;;;;-1.70;85.94;98493.48;107963;1254;71669;-81
2024/01/14 09:06:24;;;;;;;17.20;10.90;;;;;;;-1.62;86.74;98481.21;107212;1254;71273;-80
2024/01/14 09:08:51;;;;;;;18.00;12.10;;;;;;;-1.62;87.54;98479.46;106690;1254;60578;-82
2024/01/14 09:11:19;;;;;;;15.90;10.70;;;;;;;-1.68;89.23;98492.09;106531;1259;60371;-81
2024/01/14 09:13:46;;;;;;;16.50;10.30;;;;;;;-1.69;89.64;98480.39;106883;1260;73785;-81
2024/01/14 09:16:14;;;;;;;16.50;11.40;;;;;;;-1.62;89.25;98474.60;107536;1254;70615;-80
2024/01/14 09:18:41;;;;;;;20.50;12.50;;;;;;;-1.64;88.42;98464.55;107754;1254;71471;-81
2024/01/14 09:21:10;;;;;;;20.70;13.80;;;;;;;-1.68;88.11;98476.86;106947;1254;61911;-81
2024/01/14 09:23:37;;;;;;;19.70;12.70;;;;;;;-1.60;87.81;98465.25;107118;1254;59403;-81
2024/01/14 09:26:05;;;;;;;19.30;13.20;;;;;;;-1.60;87.64;98458.32;106185;1254;72857;-83
2024/01/14 09:28:32;;;;;;;20.70;12.10;;;;;;;-1.67;87.14;98463.90;105885;1254;70613;-83
2024/01/14 09:31:00;;;;;;;21.10;13.80;;;;;;;-1.65;86.70;98450.86;106110;1260;73014;-81
2024/01/14 09:33:27;;;;;;;20.80;12.10;;;;;;;-1.59;86.69;98461.73;106116;1254;60550;-82
2024/01/14 09:35:55;;;;;;;23.20;14.20;;;;;;;-1.59;87.25;98456.35;106219;1257;60441;-83
2024/01/14 09:38:23;;;;;;;21.80;12.90;;;;;;;-1.65;87.91;98447.27;106422;1253;72311;-82
2024/01/14 09:41:15;;;;;;;20.20;13.30;;;;;;;-1.62;87.86;98440.25;106062;1254;70385;-83
2024/01/14 09:43:45;;;;;;;27.60;13.40;;;;;;;-1.53;88.25;98442.36;106540;1253;71047;-81
2024/01/14 09:46:13;;;;;;;22.90;14.40;;;;;;;-1.57;88.10;98435.86;106331;1255;60538;-82
2024/01/14 09:48:40;;;;;;;18.70;11.70;;;;;;;-1.64;88.02;98441.09;105757;1253;60954;-83
2024/01/14 09:51:08;;;;;;;22.60;14.70;;;;;;;-1.59;87.94;98430.46;105920;1254;73586;-84
2024/01/14 09:53:36;;;;;;;20.50;14.70;;;;;;;-1.57;88.29;98425.14;106279;1261;70732;-83
2024/01/14 09:56:07;;;;;;;22.30;14.90;;;;;;;-1.62;88.58;98417.61;107012;1253;72809;-81
2024/01/14 09:58:35;;;;;;;18.40;12.10;;;;;;;-1.62;87.63;98425.98;109091;1254;59720;-82
2024/01/14 10:01:04;;;;;;;21.20;12.90;;;;;;;-1.49;86.27;98430.39;109100;1253;62225;-81
2024/01/14 10:03:32;;;;;;;18.60;11.70;;;;;;;-1.41;84.77;98430.16;108277;1253;72575;-83
2024/01/14 10:05:59;;;;;;;17.00;11.90;;;;;;;-1.41;84.10;98424.52;108602;1253;69223;-83
2024/01/14 10:08:27;;;;;;;17.20;10.20;;;;;;;-1.45;84.23;98427.90;107382;1253;74031;-82
2024/01/14 10:10:55;;;;;;;19.10;11.90;;;;;;;-1.41;83.16;98421.34;106938;1254;60443;-80
2024/01/14 10:13:24;;;;;;;18.70;12.00;;;;;;;-1.33;83.13;98420.55;106415;1253;60529;-81
2024/01/14 10:15:52;;;;;;;17.00;10.80;;;;;;;-1.34;82.95;98422.91;106838;1254;72948;-84
2024/01/14 10:18:25;;;;;;;15.10;10.40;;;;;;;-1.41;82.53;98426.52;106256;1256;70982;-81
2024/01/14 10:20:53;;;;;;;15.80;9.80;;;;;;;-1.35;82.59;98419.52;106114;1254;71456;-82
2024/01/14 10:23:21;;;;;;;17.40;10.50;;;;;;;-1.31;81.59;98410.16;105826;1253;60549;-82
2024/01/14 10:25:49;;;;;;;16.80;11.40;;;;;;;-1.35;81.22;98407.16;105954;1254;61067;-83
2024/01/14 10:28:17;;;;;;;15.10;10.90;;;;;;;-1.36;81.65;98400.50;105955;1258;73851;-82
2024/01/14 10:30:45;;;;;;;13.70;9.60;;;;;;;-1.23;81.84;98391.91;106006;1253;72735;-82
2024/01/14 10:33:12;;;;;;;16.00;9.50;;;;;;;-1.11;81.61;98390.96;106837;1254;71460;-80
2024/01/14 10:35:50;;;;;;;15.40;9.00;;;;;;;-1.05;80.96;98393.77;105893;1252;61317;-78
2024/01/14 10:38:19;;;;;;;12.00;9.10;;;;;;;-0.99;80.38;98382.98;105839;1254;62317;-77
2024/01/14 10:40:47;;;;;;;16.50;10.90;;;;;;;-0.82;80.13;98379.99;105818;1253;76029;-77
2024/01/14 10:43:14;;;;;;;18.00;11.80;;;;;;;-0.75;79.86;98376.32;105946;1252;69481;-78
2024/01/14 10:45:42;;;;;;;17.00;10.90;;;;;;;-0.78;80.18;98376.77;106098;1253;72783;-78
2024/01/14 10:48:10;;;;;;;18.80;12.00;;;;;;;-0.82;80.35;98372.88;105903;1253;60504;-77
2024/01/14 10:50:38;;;;;;;14.10;10.00;;;;;;;-0.83;79.93;98381.14;105851;1254;60613;-78
2024/01/14 10:53:26;;;;;;;15.40;10.10;;;;;;;-0.81;79.71;98378.69;105953;1254;72674;-77
2024/01/14 10:56:02;;;;;;;15.10;10.20;;;;;;;-0.96;80.40;98367.08;108676;1252;68919;-78
2024/01/14 10:58:30;;;;;;;14.50;8.50;;;;;;;-1.12;81.51;98366.02;108639;1253;71647;-77
2024/01/14 11:01:03;;;;;;;15.30;9.80;;;;;;;-1.15;81.43;98352.55;107417;1253;60501;-77
2024/01/14 11:03:31;;;;;;;15.40;10.60;;;;;;;-1.14;81.69;98357.62;106750;1254;62395;-83
2024/01/14 11:05:58;;;;;;;16.30;10.90;;;;;;;-1.18;82.04;98352.10;106550;1253;73145;-82
2024/01/14 11:08:26;;;;;;;14.00;9.20;;;;;;;-1.23;82.62;98344.00;105987;1253;71318;-82
2024/01/14 11:10:54;;;;;;;11.50;9.30;;;;;;;-1.15;82.68;98342.81;107432;1253;71019;-83
2024/01/14 11:13:22;;;;;;;16.00;10.20;;;;;;;-1.17;83.07;98341.55;106747;1257;60588;-83
2024/01/14 11:16:21;;;;;;;13.70;8.90;;;;;;;-1.26;83.60;98345.95;107665;1253;60434;-82